Patterson, LA

6:30 PM CDT on April 21, 2015 (GMT -0500)
Salt Point | | Change Station
CLOSE
Current Station
Airport
Location: Salt Point,
Elevation: 0 ft
Nearby Weather Stations

Elev 0 ft 29.56 °N, 91.52 °W | Updated 37 minutes ago

Clear
Clear
74 °F
Feels Like 74 °F
N
7
Wind Variable Wind from SE
Gusts mph

Today
High -- | Low -- °F
--% Chance of Precip.
Yesterday
High -- | Low -- °F
Precip. -- in
6:32 AM 7:35 PM
Waxing Crescent, 13% visible
Pressure 29.97 in
Visibility -9999.0 miles
Clouds
Dew Point 55 °F
Humidity 52%
Rainfall 0.00 in
Snow Depth Not available.
UV Not available.
Pollen 7.90 out of 12
Air Quality Not available.
Flu Activity Local Activity
METAR KP92 212253Z AUTO 13006KT 23/13 A2997 RMK AO1 SLP148 T02330128

More Conditions Fewer Conditions

Pressure 29.97 in
Visibility -9999.0 miles
Clouds
Dew Point 55 °F
Humidity 52%
Rainfall 0.00 in
Snow Depth Not available.
UV Not available.
Pollen 7.90 out of 12
Air Quality Not available.
Flu Activity Local Activity
METAR KP92 212253Z AUTO 13006KT 23/13 A2997 RMK AO1 SLP148 T02330128

More Conditions Fewer Conditions

10-Day Weather Forecast

Almanac

Astronomy

Apr. 21, 2015 Rise Set
Actual Time
Civil Twilight
Nautical Twilight
Astronomical Twilight
Moon
Length of Visible Light
Length of Day
Tomorrow will be .
, % of the Moon is Illuminated

Today's Extremes

State Highs State Lows

Community

WunderPhotos

Upload Photos

1,815,579 photos uploaded!

WunderBlogs® & News

Nearby

Air Quality

  Air Quality AQ Index Pollutant
Not available.

Snow Depth

Station Depth Elevation

Earthquake Activity

City Distance Mag. Time & Date
Minimum magnitude displayed is 2.5.

Coastal Water Temperatures

Place Temperature

Stations

Nearby Weather Stations

Station Location Temp. Windchill Dew Point Humidity Wind Precip. Elev Updated Type